createdAt,value
2023-04-18T00:02:03.215Z,1
2023-04-18T00:14:03.005Z,1
2023-04-18T00:26:03.210Z,1
2023-04-18T00:38:03.117Z,1
2023-04-18T00:50:03.105Z,1
2023-04-18T01:02:03.088Z,1
2023-04-18T01:14:03.224Z,1
2023-04-18T01:26:03.181Z,1
2023-04-18T01:38:03.130Z,1
2023-04-18T01:50:03.269Z,1
2023-04-18T02:02:03.351Z,1
2023-04-18T02:14:03.202Z,1
2023-04-18T02:26:03.202Z,1
2023-04-18T02:38:03.299Z,1
2023-04-18T02:50:03.393Z,1
2023-04-18T03:02:03.239Z,1
2023-04-18T03:14:03.221Z,1
2023-04-18T03:26:03.391Z,1
2023-04-18T03:38:03.331Z,1
2023-04-18T03:50:03.257Z,1
2023-04-18T04:02:03.587Z,1
2023-04-18T04:14:03.375Z,1
2023-04-18T04:26:03.391Z,1
2023-04-18T04:38:03.293Z,2
2023-04-18T04:50:03.483Z,11
2023-04-18T05:02:03.493Z,32
2023-04-18T05:14:03.384Z,52
2023-04-18T05:26:03.352Z,64
2023-04-18T05:38:03.495Z,66
2023-04-18T05:50:03.441Z,71
2023-04-18T06:02:03.449Z,73
2023-04-18T06:14:03.552Z,77
2023-04-18T06:26:03.556Z,84
2023-04-18T06:38:03.444Z,90
2023-04-18T06:50:03.449Z,86
2023-04-18T07:02:03.583Z,88
2023-04-18T07:14:03.859Z,89
2023-04-18T07:26:03.514Z,90
2023-04-18T07:38:03.712Z,94
2023-04-18T07:50:03.600Z,95
2023-04-18T08:02:03.750Z,97
2023-04-18T08:14:03.536Z,97
2023-04-18T08:26:03.772Z,97
2023-04-18T08:38:03.730Z,97
2023-04-18T08:50:03.716Z,97
2023-04-18T09:02:03.832Z,97
2023-04-18T09:14:04.830Z,97
2023-04-18T09:26:03.545Z,97
2023-04-18T09:38:03.793Z,97
2023-04-18T09:50:03.672Z,97
2023-04-18T10:02:04.239Z,97
2023-04-18T10:14:03.582Z,97
2023-04-18T10:26:03.874Z,96
2023-04-18T10:38:03.702Z,95
2023-04-18T10:50:06.063Z,96
2023-04-18T11:02:03.871Z,96
2023-04-18T11:14:03.839Z,95
2023-04-18T11:26:03.850Z,95
2023-04-18T11:38:03.827Z,95
2023-04-18T11:50:03.868Z,96
2023-04-18T12:02:15.186Z,96
2023-04-18T12:14:04.224Z,96
2023-04-18T12:26:03.827Z,96
2023-04-18T12:38:03.978Z,95
2023-04-18T12:50:03.967Z,95
2023-04-18T13:02:04.005Z,95
2023-04-18T13:14:03.841Z,95
2023-04-18T13:26:03.993Z,95
2023-04-18T13:38:03.985Z,95
2023-04-18T13:50:03.931Z,95
2023-04-18T14:02:04.284Z,95
2023-04-18T14:14:03.930Z,95
2023-04-18T14:26:03.982Z,95
2023-04-18T14:38:04.098Z,94
2023-04-18T14:50:04.055Z,94
2023-04-18T15:02:04.080Z,94
2023-04-18T15:14:03.930Z,94
2023-04-18T15:26:04.090Z,94
2023-04-18T15:38:04.067Z,94
2023-04-18T15:50:04.044Z,94
2023-04-18T16:02:04.649Z,94
2023-04-18T16:14:04.448Z,94
2023-04-18T16:26:04.108Z,94
2023-04-18T16:38:04.053Z,94
2023-04-18T16:50:04.186Z,93
2023-04-18T17:02:04.372Z,93
2023-04-18T17:14:04.242Z,93
2023-04-18T17:26:04.187Z,93
2023-04-18T17:38:04.193Z,92
2023-04-18T17:50:04.230Z,92
2023-04-18T18:02:04.687Z,91
2023-04-18T18:14:04.367Z,90
2023-04-18T18:26:04.189Z,88
2023-04-18T18:38:04.111Z,86
2023-04-18T18:50:04.285Z,83
2023-04-18T19:02:04.351Z,77
2023-04-18T19:14:04.220Z,65
2023-04-18T19:26:04.336Z,45
2023-04-18T19:38:04.325Z,20
2023-04-18T19:50:04.652Z,6
2023-04-18T20:02:06.616Z,1
2023-04-18T20:14:04.349Z,1
2023-04-18T20:26:04.461Z,1
2023-04-18T20:38:04.509Z,1
2023-04-18T20:50:04.372Z,1
2023-04-18T21:02:04.460Z,1
2023-04-18T21:14:04.341Z,1
2023-04-18T21:26:04.299Z,1
2023-04-18T21:38:04.512Z,1
2023-04-18T21:50:04.484Z,1
2023-04-18T22:02:04.457Z,1
2023-04-18T22:14:04.472Z,1
2023-04-18T22:26:04.454Z,1
2023-04-18T22:38:04.401Z,1
2023-04-18T22:50:04.414Z,1
2023-04-18T23:02:04.658Z,1
2023-04-18T23:14:04.585Z,1
2023-04-18T23:26:04.463Z,1
2023-04-18T23:38:04.629Z,1
2023-04-18T23:50:04.554Z,1
